createdAt,value
2023-04-16T00:00:47.571Z,52.69
2023-04-16T00:01:47.728Z,61.08
2023-04-16T00:02:47.705Z,52.79
2023-04-16T00:03:48.806Z,59.21
2023-04-16T00:04:48.594Z,62.70
2023-04-16T00:05:47.594Z,58.04
2023-04-16T00:06:47.727Z,55.54
2023-04-16T00:07:47.634Z,58.92
2023-04-16T00:08:47.544Z,56.08
2023-04-16T00:09:47.639Z,55.64
2023-04-16T00:10:47.680Z,55.50
2023-04-16T00:11:47.517Z,57.41
2023-04-16T00:12:47.516Z,64.84
2023-04-16T00:13:47.515Z,59.14
2023-04-16T00:14:47.703Z,61.88
2023-04-16T00:15:47.531Z,55.15
2023-04-16T00:16:47.513Z,55.05
2023-04-16T00:17:47.535Z,64.74
2023-04-16T00:18:47.912Z,59.42
2023-04-16T00:19:47.576Z,54.58
2023-04-16T00:20:47.943Z,58.68
2023-04-16T00:21:47.688Z,58.29
2023-04-16T00:22:47.726Z,62.19
2023-04-16T00:23:47.604Z,55.24
2023-04-16T00:24:47.437Z,56.05
2023-04-16T00:25:47.708Z,52.92
2023-04-16T00:26:47.426Z,56.87
2023-04-16T00:27:47.431Z,60.40
2023-04-16T00:28:47.537Z,58.56
2023-04-16T00:29:47.477Z,58.90
2023-04-16T00:30:47.483Z,59.89
2023-04-16T00:31:47.571Z,62.09
2023-04-16T00:32:47.718Z,61.29
2023-04-16T00:33:47.391Z,60.89
2023-04-16T00:34:47.423Z,58.79
2023-04-16T00:35:47.368Z,58.62
2023-04-16T00:36:47.386Z,52.87
2023-04-16T00:37:47.367Z,52.77
2023-04-16T00:38:47.422Z,52.75
2023-04-16T00:39:47.346Z,58.35
2023-04-16T00:40:47.373Z,52.62
2023-04-16T00:41:47.395Z,52.89
2023-04-16T00:42:47.330Z,53.18
2023-04-16T00:43:47.359Z,62.68
2023-04-16T00:44:47.466Z,59.64
2023-04-16T00:45:47.534Z,55.41
2023-04-16T00:46:47.571Z,62.44
2023-04-16T00:47:47.425Z,59.76
2023-04-16T00:48:47.397Z,63.02
2023-04-16T00:49:47.345Z,59.03
2023-04-16T00:50:47.295Z,62.85
2023-04-16T00:51:47.576Z,62.76
2023-04-16T00:52:47.302Z,60.87
2023-04-16T00:53:47.807Z,57.89
2023-04-16T00:54:47.284Z,56.70
2023-04-16T00:56:20.575Z,66.14
2023-04-16T00:57:20.686Z,65.46
2023-04-16T00:58:21.054Z,62.93
2023-04-16T00:59:20.805Z,56.07
2023-04-16T01:00:20.844Z,59.50
2023-04-16T01:01:21.899Z,65.52
2023-04-16T01:02:20.709Z,53.02
2023-04-16T01:02:47.276Z,53.17
2023-04-16T01:04:19.750Z,53.06
2023-04-16T01:05:21.674Z,64.42
2023-04-16T01:05:47.201Z,56.10
2023-04-16T01:06:47.215Z,57.88
2023-04-16T01:07:47.195Z,58.70
2023-04-16T01:08:47.180Z,52.87
2023-04-16T01:09:47.222Z,53.37
2023-04-16T01:10:47.175Z,57.78
2023-04-16T01:11:47.250Z,57.72
2023-04-16T01:12:47.136Z,57.39
2023-04-16T01:13:48.168Z,54.24
2023-04-16T01:14:47.139Z,52.76
2023-04-16T01:15:47.206Z,58.58
2023-04-16T01:16:47.177Z,53.03
2023-04-16T01:17:48.211Z,58.48
2023-04-16T01:18:47.136Z,53.03
2023-04-16T01:19:47.125Z,53.26
2023-04-16T01:20:47.095Z,61.16
2023-04-16T01:21:47.148Z,52.93
2023-04-16T01:22:47.102Z,52.94
2023-04-16T01:23:47.096Z,52.77
2023-04-16T01:24:47.069Z,54.56
2023-04-16T01:25:47.088Z,55.12
2023-04-16T01:26:47.080Z,55.63
2023-04-16T01:27:47.090Z,61.68
2023-04-16T01:28:47.061Z,61.56
2023-04-16T01:29:47.068Z,58.73
2023-04-16T01:30:47.016Z,58.54
2023-04-16T01:31:47.180Z,63.77
2023-04-16T01:32:47.095Z,55.68
2023-04-16T01:33:47.044Z,58.41
2023-04-16T01:34:47.029Z,58.78
2023-04-16T01:35:47.019Z,55.86
2023-04-16T01:36:47.067Z,62.36
2023-04-16T01:37:47.005Z,61.71
2023-04-16T01:38:46.995Z,54.01
2023-04-16T01:39:46.992Z,53.66
2023-04-16T01:40:46.978Z,55.70
2023-04-16T01:41:46.996Z,66.48
2023-04-16T01:42:46.989Z,61.22
2023-04-16T01:43:46.973Z,53.08
2023-04-16T01:44:46.952Z,53.23
2023-04-16T01:45:46.953Z,53.11
2023-04-16T01:46:46.948Z,53.12
2023-04-16T01:47:46.986Z,63.09
2023-04-16T01:48:46.935Z,59.11
2023-04-16T01:49:46.922Z,56.13
2023-04-16T01:50:46.936Z,53.17
2023-04-16T01:51:46.913Z,58.28
2023-04-16T01:52:46.926Z,65.47
2023-04-16T01:53:46.888Z,53.03
2023-04-16T01:54:46.899Z,52.77
2023-04-16T01:55:46.894Z,68.04
2023-04-16T01:56:46.909Z,53.70
2023-04-16T01:57:46.874Z,52.44
2023-04-16T01:58:46.860Z,52.40
2023-04-16T01:59:46.864Z,53.97
2023-04-16T02:00:46.944Z,61.76
2023-04-16T02:01:46.966Z,56.35
2023-04-16T02:02:47.023Z,52.16
2023-04-16T02:03:47.019Z,52.50
2023-04-16T02:04:46.852Z,55.01
2023-04-16T02:05:46.859Z,55.43
2023-04-16T02:06:46.851Z,57.13
2023-04-16T02:07:46.868Z,57.12
2023-04-16T02:08:46.804Z,55.75
2023-04-16T02:09:46.836Z,60.28
2023-04-16T02:10:46.804Z,60.65
2023-04-16T02:11:46.810Z,60.23
2023-04-16T02:12:46.794Z,65.40
2023-04-16T02:13:46.766Z,56.36
2023-04-16T02:14:46.778Z,55.50
2023-04-16T02:15:46.778Z,58.67
2023-04-16T02:16:46.808Z,55.20
2023-04-16T02:17:46.918Z,59.72
2023-04-16T02:18:46.753Z,64.72
2023-04-16T02:19:46.741Z,53.90
2023-04-16T02:20:46.755Z,53.91
2023-04-16T02:21:47.034Z,54.03
2023-04-16T02:22:46.721Z,54.03
2023-04-16T02:23:46.748Z,58.83
2023-04-16T02:24:46.717Z,61.17
2023-04-16T02:25:47.694Z,52.92
2023-04-16T02:26:46.701Z,52.81
2023-04-16T02:27:46.724Z,52.95
2023-04-16T02:28:46.679Z,59.06
2023-04-16T02:29:46.684Z,61.69
2023-04-16T02:30:46.687Z,62.61
2023-04-16T02:31:46.696Z,65.16
2023-04-16T02:32:46.783Z,57.97
2023-04-16T02:33:46.646Z,54.90
2023-04-16T02:34:46.648Z,52.60
2023-04-16T02:35:46.651Z,52.50
2023-04-16T02:36:46.642Z,52.56
2023-04-16T02:37:46.618Z,60.59
2023-04-16T02:38:46.634Z,53.13
2023-04-16T02:39:46.630Z,53.00
2023-04-16T02:40:46.627Z,53.34
2023-04-16T02:41:46.650Z,52.85
2023-04-16T02:42:46.634Z,58.66
2023-04-16T02:43:46.597Z,53.69
2023-04-16T02:44:46.602Z,55.56
2023-04-16T02:45:46.638Z,57.17
2023-04-16T02:46:47.210Z,66.59
2023-04-16T02:47:46.635Z,63.42
2023-04-16T02:48:46.577Z,55.90
2023-04-16T02:49:46.595Z,61.48
2023-04-16T02:50:46.562Z,62.57
2023-04-16T02:51:46.565Z,59.90
2023-04-16T02:52:46.531Z,69.51
2023-04-16T02:53:46.574Z,64.99
2023-04-16T02:54:46.528Z,54.69
2023-04-16T02:55:47.516Z,58.91
2023-04-16T02:56:46.542Z,55.48
2023-04-16T02:57:46.545Z,54.43
2023-04-16T02:58:46.570Z,54.27
2023-04-16T02:59:46.524Z,58.38
2023-04-16T03:00:46.492Z,54.32
2023-04-16T03:01:46.598Z,57.85
2023-04-16T03:02:46.571Z,61.54
2023-04-16T03:03:46.540Z,54.11
2023-04-16T03:04:46.463Z,54.06
2023-04-16T03:05:46.517Z,60.70
2023-04-16T03:06:46.467Z,69.23
2023-04-16T03:07:46.462Z,58.66
2023-04-16T03:08:46.474Z,53.59
2023-04-16T03:09:46.441Z,53.62
2023-04-16T03:10:46.457Z,64.12
2023-04-16T03:11:46.437Z,59.20
2023-04-16T03:12:46.430Z,52.94
2023-04-16T03:13:46.411Z,53.23
2023-04-16T03:14:46.445Z,53.18
2023-04-16T03:15:46.455Z,53.10
2023-04-16T03:16:46.406Z,65.47
2023-04-16T03:17:46.444Z,56.44
2023-04-16T03:18:46.373Z,61.69
2023-04-16T03:19:46.376Z,66.13
2023-04-16T03:20:46.397Z,63.84
2023-04-16T03:21:46.406Z,55.51
2023-04-16T03:22:46.395Z,53.53
2023-04-16T03:23:46.433Z,59.31
2023-04-16T03:24:46.355Z,59.85
2023-04-16T03:25:46.373Z,59.69
2023-04-16T03:26:46.349Z,59.85
2023-04-16T03:27:46.349Z,53.95
2023-04-16T03:28:46.343Z,59.96
2023-04-16T03:29:46.324Z,62.89
2023-04-16T03:30:46.333Z,57.59
2023-04-16T03:31:46.340Z,61.20
2023-04-16T03:32:46.318Z,64.42
2023-04-16T03:33:46.326Z,63.71
2023-04-16T03:34:46.297Z,57.24
2023-04-16T03:35:46.304Z,60.20
2023-04-16T03:36:47.271Z,55.78
2023-04-16T03:37:46.300Z,66.86
2023-04-16T03:38:46.314Z,62.84
2023-04-16T03:39:46.262Z,62.89
2023-04-16T03:40:46.259Z,63.86
2023-04-16T03:41:46.260Z,63.78
2023-04-16T03:42:46.267Z,62.02
2023-04-16T03:43:46.244Z,62.58
2023-04-16T03:44:46.246Z,61.21
2023-04-16T03:45:46.246Z,64.88
2023-04-16T03:46:46.274Z,55.32
2023-04-16T03:47:46.230Z,55.34
2023-04-16T03:48:46.214Z,60.40
2023-04-16T03:49:46.207Z,61.28
2023-04-16T03:50:46.205Z,55.97
2023-04-16T03:51:47.223Z,60.76
2023-04-16T03:52:46.207Z,64.41
2023-04-16T03:53:46.195Z,59.63
2023-04-16T03:54:46.187Z,62.36
2023-04-16T03:55:46.189Z,59.91
2023-04-16T03:56:46.194Z,56.68
2023-04-16T03:57:46.169Z,60.03
2023-04-16T03:58:46.188Z,61.17
2023-04-16T03:59:46.139Z,58.86
2023-04-16T04:00:46.136Z,69.79
2023-04-16T04:01:46.224Z,66.68
2023-04-16T04:02:46.311Z,58.90
2023-04-16T04:03:46.290Z,65.04
2023-04-16T04:04:46.296Z,61.95
2023-04-16T04:05:46.178Z,62.81
2023-04-16T04:06:46.091Z,61.03
2023-04-16T04:07:46.100Z,63.51
2023-04-16T04:08:46.111Z,65.53
2023-04-16T04:09:46.136Z,60.07
2023-04-16T04:10:46.091Z,62.79
2023-04-16T04:11:46.056Z,65.66
2023-04-16T04:12:46.066Z,63.10
2023-04-16T04:13:46.064Z,61.97
2023-04-16T04:14:46.047Z,69.35
2023-04-16T04:15:46.054Z,67.86
2023-04-16T04:16:46.142Z,69.14
2023-04-16T04:17:46.159Z,67.98
2023-04-16T04:18:46.048Z,57.13
2023-04-16T04:19:58.126Z,66.49
2023-04-16T04:20:48.014Z,62.28
2023-04-16T04:21:46.008Z,65.02
2023-04-16T04:22:46.010Z,67.41
2023-04-16T04:23:46.026Z,69.93
2023-04-16T04:24:46.006Z,57.31
2023-04-16T04:25:46.035Z,60.64
2023-04-16T04:26:45.979Z,59.37
2023-04-16T04:27:45.977Z,65.84
2023-04-16T04:28:46.015Z,62.95
2023-04-16T04:29:45.986Z,67.71
2023-04-16T04:30:45.962Z,66.72
2023-04-16T04:31:46.008Z,69.30
2023-04-16T04:32:46.030Z,64.45
2023-04-16T04:33:45.958Z,60.72
2023-04-16T04:34:45.934Z,62.90
2023-04-16T04:35:45.936Z,58.19
2023-04-16T04:36:45.907Z,59.92
2023-04-16T04:37:45.917Z,63.77
2023-04-16T04:38:45.899Z,62.38
2023-04-16T04:39:46.686Z,63.32
2023-04-16T04:40:45.885Z,55.24
2023-04-16T04:41:45.880Z,67.07
2023-04-16T04:42:45.876Z,60.82
2023-04-16T04:43:45.923Z,65.04
2023-04-16T04:44:45.864Z,61.87
2023-04-16T04:45:45.878Z,65.43
2023-04-16T04:46:45.862Z,63.05
2023-04-16T04:47:45.933Z,67.72
2023-04-16T04:48:45.851Z,69.81
2023-04-16T04:49:45.836Z,59.15
2023-04-16T04:50:45.865Z,55.31
2023-04-16T04:51:45.823Z,66.00
2023-04-16T04:52:45.838Z,57.43
2023-04-16T04:53:45.810Z,62.20
2023-04-16T04:54:45.829Z,67.17
2023-04-16T04:55:45.802Z,65.61
2023-04-16T04:56:45.845Z,61.81
2023-04-16T04:57:45.791Z,63.76
2023-04-16T04:58:45.792Z,72.07
2023-04-16T04:59:45.789Z,60.33
2023-04-16T05:00:45.895Z,65.63
2023-04-16T05:01:45.778Z,66.38
2023-04-16T05:02:45.849Z,65.06
2023-04-16T05:03:45.838Z,58.06
2023-04-16T05:04:45.758Z,66.77
2023-04-16T05:05:45.746Z,58.31
2023-04-16T05:06:45.742Z,61.76
2023-04-16T05:07:45.750Z,56.62
2023-04-16T05:08:45.744Z,67.14
2023-04-16T05:09:45.795Z,58.69
2023-04-16T05:10:45.704Z,60.35
2023-04-16T05:11:45.719Z,62.91
2023-04-16T05:12:47.183Z,59.45
2023-04-16T05:13:45.738Z,68.10
2023-04-16T05:14:45.720Z,58.85
2023-04-16T05:15:45.686Z,63.97
2023-04-16T05:16:45.703Z,66.13
2023-04-16T05:17:45.678Z,70.00
2023-04-16T05:18:45.669Z,55.02
2023-04-16T05:19:45.694Z,64.16
2023-04-16T05:20:45.654Z,68.80
2023-04-16T05:21:45.645Z,66.97
2023-04-16T05:22:45.642Z,56.47
2023-04-16T05:23:45.645Z,72.59
2023-04-16T05:24:45.661Z,59.84
2023-04-16T05:25:45.635Z,65.05
2023-04-16T05:26:45.617Z,58.99
2023-04-16T05:27:45.636Z,67.04
2023-04-16T05:28:45.617Z,60.25
2023-04-16T05:29:46.115Z,69.45
2023-04-16T05:30:45.653Z,64.55
2023-04-16T05:31:45.599Z,64.21
2023-04-16T05:32:45.644Z,67.98
2023-04-16T05:33:45.577Z,67.36
2023-04-16T05:34:45.621Z,65.02
2023-04-16T05:35:45.573Z,61.38
2023-04-16T05:36:45.558Z,58.50
2023-04-16T05:37:45.610Z,60.39
2023-04-16T05:38:45.552Z,63.34
2023-04-16T05:39:45.542Z,64.32
2023-04-16T05:40:45.539Z,72.41
2023-04-16T05:41:45.539Z,62.28
2023-04-16T05:42:45.545Z,62.34
2023-04-16T05:43:45.580Z,60.02
2023-04-16T05:44:46.177Z,67.44
2023-04-16T05:45:46.247Z,67.34
2023-04-16T05:46:45.494Z,70.68
2023-04-16T05:47:45.547Z,66.54
2023-04-16T05:48:45.492Z,70.37
2023-04-16T05:49:45.499Z,66.98
2023-04-16T05:50:46.223Z,62.67
2023-04-16T05:51:45.480Z,62.78
2023-04-16T05:52:45.520Z,58.24
2023-04-16T05:53:45.445Z,54.46
2023-04-16T05:54:45.481Z,62.08
2023-04-16T05:55:45.549Z,58.75
2023-04-16T05:56:45.446Z,68.78
2023-04-16T05:57:45.436Z,65.51
2023-04-16T05:58:45.430Z,66.11
2023-04-16T05:59:45.498Z,69.41
2023-04-16T06:00:45.478Z,65.41
2023-04-16T06:01:45.427Z,67.14
2023-04-16T06:02:45.531Z,71.54
2023-04-16T06:03:45.647Z,69.42
2023-04-16T06:04:45.379Z,66.83
2023-04-16T06:05:45.427Z,69.03
2023-04-16T06:06:45.384Z,65.68
2023-04-16T06:07:45.418Z,70.81
2023-04-16T06:08:45.379Z,65.76
2023-04-16T06:09:45.368Z,66.88
2023-04-16T06:10:45.370Z,65.24
2023-04-16T06:11:45.360Z,64.94
2023-04-16T06:12:45.334Z,67.44
2023-04-16T06:13:45.353Z,66.43
2023-04-16T06:14:45.342Z,70.50
2023-04-16T06:15:45.344Z,59.22
2023-04-16T06:16:45.316Z,65.65
2023-04-16T06:17:45.338Z,69.69
2023-04-16T06:18:45.338Z,61.13
2023-04-16T06:19:45.322Z,68.12
2023-04-16T06:20:45.303Z,65.75
2023-04-16T06:21:45.305Z,70.42
2023-04-16T06:22:45.349Z,68.85
2023-04-16T06:23:45.272Z,62.99
2023-04-16T06:24:45.261Z,68.62
2023-04-16T06:25:45.396Z,69.49
2023-04-16T06:26:45.259Z,77.55
2023-04-16T06:27:45.253Z,68.00
2023-04-16T06:28:45.256Z,71.49
2023-04-16T06:29:45.230Z,69.18
2023-04-16T06:30:45.254Z,71.79
2023-04-16T06:31:45.239Z,71.13
2023-04-16T06:32:45.315Z,66.49
2023-04-16T06:33:45.247Z,69.41
2023-04-16T06:34:45.223Z,71.80
2023-04-16T06:35:45.263Z,63.51
2023-04-16T06:36:45.236Z,67.51
2023-04-16T06:37:45.175Z,65.89
2023-04-16T06:38:45.172Z,69.61
2023-04-16T06:39:45.194Z,57.78
2023-04-16T06:40:45.169Z,74.65
2023-04-16T06:41:45.201Z,73.62
2023-04-16T06:42:45.715Z,69.88
2023-04-16T06:43:46.137Z,70.82
2023-04-16T06:44:45.163Z,71.68
2023-04-16T06:45:45.157Z,71.84
2023-04-16T06:46:45.166Z,70.06
2023-04-16T06:47:45.190Z,69.68
2023-04-16T06:48:45.137Z,72.47
2023-04-16T06:49:45.122Z,69.73
2023-04-16T06:50:45.165Z,71.68
2023-04-16T06:51:45.118Z,68.71
2023-04-16T06:52:45.096Z,69.83
2023-04-16T06:53:45.125Z,69.01
2023-04-16T06:54:45.079Z,68.91
2023-04-16T06:55:45.080Z,69.30
2023-04-16T06:56:45.103Z,59.34
2023-04-16T06:57:45.072Z,72.45
2023-04-16T06:58:45.077Z,71.43
2023-04-16T06:59:45.072Z,73.49
2023-04-16T07:00:45.070Z,66.64
2023-04-16T07:01:45.072Z,67.86
2023-04-16T07:02:45.216Z,72.64
2023-04-16T07:03:45.242Z,73.37
2023-04-16T07:04:45.021Z,72.69
2023-04-16T07:05:45.000Z,64.69
2023-04-16T07:06:45.006Z,67.91
2023-04-16T07:07:45.019Z,72.15
2023-04-16T07:08:45.002Z,72.71
2023-04-16T07:09:45.015Z,74.13
2023-04-16T07:10:44.995Z,76.00
2023-04-16T07:11:44.978Z,70.93
2023-04-16T07:12:44.965Z,72.35
2023-04-16T07:13:44.996Z,74.55
2023-04-16T07:14:44.965Z,69.51
2023-04-16T07:15:44.960Z,73.32
2023-04-16T07:16:45.041Z,70.92
2023-04-16T07:17:44.998Z,69.94
2023-04-16T07:18:44.961Z,69.21
2023-04-16T07:19:44.935Z,70.22
2023-04-16T07:20:44.926Z,73.74
2023-04-16T07:21:44.915Z,68.69
2023-04-16T07:22:44.957Z,65.60
2023-04-16T07:23:44.906Z,69.63
2023-04-16T07:24:44.899Z,68.64
2023-04-16T07:25:45.008Z,75.06
2023-04-16T07:26:44.923Z,74.57
2023-04-16T07:27:44.991Z,68.82
2023-04-16T07:28:44.907Z,71.58
2023-04-16T07:29:44.866Z,64.71
2023-04-16T07:30:44.872Z,74.23
2023-04-16T07:31:44.918Z,73.23
2023-04-16T07:32:44.914Z,71.62
2023-04-16T07:33:44.865Z,74.72
2023-04-16T07:34:44.853Z,67.31
2023-04-16T07:35:44.855Z,73.68
2023-04-16T07:36:44.837Z,75.37
2023-04-16T07:37:44.902Z,73.83
2023-04-16T07:38:44.837Z,72.99
2023-04-16T07:39:44.815Z,75.28
2023-04-16T07:40:44.851Z,72.97
2023-04-16T07:41:44.853Z,75.17
2023-04-16T07:42:45.736Z,75.73
2023-04-16T07:43:44.791Z,73.03
2023-04-16T07:44:44.776Z,71.06
2023-04-16T07:45:44.806Z,70.39
2023-04-16T07:46:47.354Z,74.76
2023-04-16T07:47:45.975Z,72.90
2023-04-16T07:48:44.744Z,69.65
2023-04-16T07:49:44.787Z,71.93
2023-04-16T07:50:44.730Z,73.25
2023-04-16T07:51:44.752Z,73.58
2023-04-16T07:52:44.754Z,68.87
2023-04-16T07:53:44.716Z,69.67
2023-04-16T07:54:44.741Z,70.17
2023-04-16T07:55:44.716Z,70.44
2023-04-16T07:56:44.723Z,70.54
2023-04-16T07:57:44.708Z,66.14
2023-04-16T07:58:44.710Z,73.93
2023-04-16T07:59:44.697Z,72.21
2023-04-16T08:00:44.672Z,70.42
2023-04-16T08:01:44.671Z,70.16
2023-04-16T08:02:44.924Z,68.09
2023-04-16T08:03:45.028Z,72.46
2023-04-16T08:04:45.550Z,67.21
2023-04-16T08:05:44.687Z,71.72
2023-04-16T08:06:44.654Z,74.92
2023-04-16T08:07:44.709Z,75.08
2023-04-16T08:08:44.621Z,67.98
2023-04-16T08:09:44.643Z,71.34
2023-04-16T08:10:44.619Z,70.88
2023-04-16T08:11:44.617Z,73.34
2023-04-16T08:12:44.651Z,75.12
2023-04-16T08:13:44.650Z,72.75
2023-04-16T08:14:44.630Z,74.63
2023-04-16T08:15:44.598Z,76.04
2023-04-16T08:16:44.597Z,71.02
2023-04-16T08:17:44.636Z,71.61
2023-04-16T08:18:44.600Z,74.32
2023-04-16T08:19:44.614Z,75.10
2023-04-16T08:20:44.666Z,69.94
2023-04-16T08:21:44.595Z,76.11
2023-04-16T08:22:44.550Z,73.48
2023-04-16T08:23:44.571Z,68.01
2023-04-16T08:24:44.563Z,76.47
2023-04-16T08:25:44.515Z,75.76
2023-04-16T08:26:44.586Z,73.52
2023-04-16T08:27:44.552Z,73.32
2023-04-16T08:28:44.540Z,74.37
2023-04-16T08:29:44.530Z,73.21
2023-04-16T08:30:44.544Z,74.97
2023-04-16T08:31:44.593Z,72.56
2023-04-16T08:32:44.583Z,74.57
2023-04-16T08:33:44.503Z,76.73
2023-04-16T08:34:44.520Z,70.00
2023-04-16T08:35:44.497Z,75.62
2023-04-16T08:36:44.474Z,75.14
2023-04-16T08:37:44.475Z,71.44
2023-04-16T08:38:44.446Z,74.35
2023-04-16T08:39:44.521Z,75.00
2023-04-16T08:40:44.469Z,72.11
2023-04-16T08:41:44.463Z,71.59
2023-04-16T08:42:44.430Z,75.20
2023-04-16T08:43:44.530Z,71.71
2023-04-16T08:44:44.428Z,71.07
2023-04-16T08:45:44.430Z,76.84
2023-04-16T08:46:44.679Z,66.88
2023-04-16T08:47:44.438Z,75.48
2023-04-16T08:48:44.414Z,75.50
2023-04-16T08:49:44.415Z,76.72
2023-04-16T08:50:44.530Z,75.89
2023-04-16T08:51:44.375Z,75.16
2023-04-16T08:52:44.402Z,75.08
2023-04-16T08:53:44.361Z,73.05
2023-04-16T08:54:44.391Z,71.89
2023-04-16T08:55:44.465Z,77.31
2023-04-16T08:56:44.360Z,77.07
2023-04-16T08:57:44.355Z,72.68
2023-04-16T08:58:44.355Z,75.61
2023-04-16T08:59:44.384Z,76.75
2023-04-16T09:00:44.339Z,77.49
2023-04-16T09:01:44.359Z,73.45
2023-04-16T09:02:44.497Z,75.25
2023-04-16T09:03:44.465Z,77.91
2023-04-16T09:04:44.475Z,74.83
2023-04-16T09:05:44.298Z,77.29
2023-04-16T09:06:44.772Z,71.09
2023-04-16T09:07:44.331Z,75.14
2023-04-16T09:08:44.274Z,75.73
2023-04-16T09:09:44.276Z,76.31
2023-04-16T09:10:44.267Z,74.63
2023-04-16T09:11:44.300Z,76.95
2023-04-16T09:12:44.259Z,75.96
2023-04-16T09:13:44.241Z,76.31
2023-04-16T09:14:44.270Z,72.93
2023-04-16T09:15:44.361Z,73.39
2023-04-16T09:16:44.342Z,73.41
2023-04-16T09:17:44.338Z,74.04
2023-04-16T09:18:44.258Z,74.71
2023-04-16T09:19:44.249Z,74.82
2023-04-16T09:20:44.212Z,77.35
2023-04-16T09:21:44.206Z,76.18
2023-04-16T09:22:45.225Z,75.36
2023-04-16T09:23:44.195Z,76.69
2023-04-16T09:24:44.247Z,75.50
2023-04-16T09:25:44.190Z,74.59
2023-04-16T09:26:44.165Z,73.93
2023-04-16T09:27:44.204Z,74.91
2023-04-16T09:28:44.166Z,75.00
2023-04-16T09:29:44.157Z,68.29
2023-04-16T09:30:44.420Z,75.98
2023-04-16T09:31:44.144Z,71.71
2023-04-16T09:32:44.211Z,76.83
2023-04-16T09:33:44.130Z,77.33
2023-04-16T09:34:44.750Z,77.20
2023-04-16T09:35:44.123Z,74.52
2023-04-16T09:36:44.123Z,72.91
2023-04-16T09:37:44.144Z,76.57
2023-04-16T09:38:44.123Z,76.87
2023-04-16T09:39:44.122Z,75.58
2023-04-16T09:40:44.139Z,74.77
2023-04-16T09:41:44.098Z,75.68
2023-04-16T09:42:44.114Z,76.93
2023-04-16T09:43:44.124Z,75.90
2023-04-16T09:44:44.139Z,73.86
2023-04-16T09:45:44.111Z,76.17
2023-04-16T09:46:44.070Z,77.27
2023-04-16T09:47:44.159Z,76.83
2023-04-16T09:48:44.092Z,75.70
2023-04-16T09:49:44.076Z,74.46
2023-04-16T09:50:44.085Z,75.86
2023-04-16T09:51:44.078Z,77.43
2023-04-16T09:52:44.065Z,75.08
2023-04-16T09:53:44.101Z,76.56
2023-04-16T09:54:44.102Z,76.02
2023-04-16T09:55:45.871Z,72.51
2023-04-16T09:56:44.063Z,76.88
2023-04-16T09:57:44.053Z,75.34
2023-04-16T09:58:44.035Z,77.43
2023-04-16T09:59:44.025Z,73.35
2023-04-16T10:00:44.013Z,77.95
2023-04-16T10:01:44.026Z,74.51
2023-04-16T10:02:44.065Z,75.40
2023-04-16T10:03:44.086Z,76.64
2023-04-16T10:04:44.416Z,75.93
2023-04-16T10:05:44.726Z,76.90
2023-04-16T10:06:43.957Z,75.32
2023-04-16T10:07:43.933Z,72.21
2023-04-16T10:08:43.937Z,76.30
2023-04-16T10:09:44.004Z,75.04
2023-04-16T10:10:43.939Z,77.04
2023-04-16T10:11:43.940Z,76.89
2023-04-16T10:12:43.896Z,73.08
2023-04-16T10:13:43.950Z,76.67
2023-04-16T10:14:43.907Z,75.32
2023-04-16T10:15:43.917Z,77.44
2023-04-16T10:16:43.955Z,78.00
2023-04-16T10:17:43.931Z,77.91
2023-04-16T10:18:43.907Z,76.48
2023-04-16T10:19:43.867Z,75.95
2023-04-16T10:20:43.864Z,75.37
2023-04-16T10:22:18.417Z,77.46
2023-04-16T10:22:43.894Z,73.45
2023-04-16T10:24:17.317Z,75.80
2023-04-16T10:25:18.795Z,75.52
2023-04-16T10:26:16.313Z,76.25
2023-04-16T10:27:17.333Z,75.54
2023-04-16T10:28:17.309Z,77.42
2023-04-16T10:29:17.240Z,78.11
2023-04-16T10:30:20.128Z,77.72
2023-04-16T10:31:16.321Z,76.33
2023-04-16T10:31:43.873Z,74.64
2023-04-16T10:32:43.868Z,72.11
2023-04-16T10:33:43.883Z,78.40
2023-04-16T10:34:43.799Z,76.55
2023-04-16T10:35:43.821Z,75.42
2023-04-16T10:37:17.357Z,75.76
2023-04-16T10:37:43.831Z,72.66
2023-04-16T10:38:43.814Z,77.01
2023-04-16T10:39:43.854Z,72.38
2023-04-16T10:40:43.790Z,76.31
2023-04-16T10:41:43.819Z,76.34
2023-04-16T10:42:43.750Z,77.08
2023-04-16T10:43:43.840Z,74.93
2023-04-16T10:44:45.634Z,77.19
2023-04-16T10:45:44.734Z,72.60
2023-04-16T10:46:43.813Z,75.17
2023-04-16T10:47:43.804Z,73.90
2023-04-16T10:48:49.819Z,75.29
2023-04-16T10:49:45.706Z,76.69
2023-04-16T10:50:43.666Z,76.46
2023-04-16T10:51:43.752Z,76.13
2023-04-16T10:52:43.748Z,75.08
2023-04-16T10:53:43.709Z,74.40
2023-04-16T10:54:43.801Z,77.03
2023-04-16T10:55:43.641Z,76.14
2023-04-16T10:56:43.630Z,75.68
2023-04-16T10:57:43.649Z,78.11
2023-04-16T10:58:43.691Z,76.14
2023-04-16T10:59:43.664Z,76.69
2023-04-16T11:00:43.706Z,75.66
2023-04-16T11:01:43.636Z,75.82
2023-04-16T11:02:44.167Z,75.88
2023-04-16T11:03:43.731Z,76.17
2023-04-16T11:04:44.088Z,75.15
2023-04-16T11:05:43.575Z,74.18
2023-04-16T11:06:43.604Z,76.97
2023-04-16T11:07:43.657Z,72.84
2023-04-16T11:08:54.055Z,75.74
2023-04-16T11:09:45.571Z,76.66
2023-04-16T11:10:43.566Z,77.20
2023-04-16T11:11:43.514Z,77.12
2023-04-16T11:12:43.581Z,74.77
2023-04-16T11:13:43.624Z,75.73
2023-04-16T11:14:44.515Z,75.27
2023-04-16T11:15:44.373Z,76.26
2023-04-16T11:16:43.493Z,77.65
2023-04-16T11:17:43.600Z,72.79
2023-04-16T11:18:50.901Z,74.96
2023-04-16T11:19:44.506Z,74.67
2023-04-16T11:20:43.488Z,75.48
2023-04-16T11:21:43.462Z,76.35
2023-04-16T11:22:43.468Z,76.29
2023-04-16T11:23:43.448Z,76.26
2023-04-16T11:24:43.478Z,76.72
2023-04-16T11:25:43.448Z,75.98
2023-04-16T11:26:43.411Z,76.72
2023-04-16T11:27:43.422Z,72.90
2023-04-16T11:28:43.477Z,76.95
2023-04-16T11:29:45.020Z,75.52
2023-04-16T11:30:43.435Z,72.25
2023-04-16T11:31:43.439Z,76.20
2023-04-16T11:32:43.428Z,77.90
2023-04-16T11:33:43.421Z,76.69
2023-04-16T11:34:43.373Z,74.88
2023-04-16T11:35:43.437Z,74.81
2023-04-16T11:36:43.354Z,72.55
2023-04-16T11:37:43.390Z,74.92
2023-04-16T11:38:43.365Z,76.97
2023-04-16T11:39:43.337Z,74.33
2023-04-16T11:40:43.475Z,73.19
2023-04-16T11:41:43.459Z,74.40
2023-04-16T11:42:43.463Z,73.16
2023-04-16T11:43:43.336Z,74.36
2023-04-16T11:44:43.365Z,74.76
2023-04-16T11:45:43.315Z,74.29
2023-04-16T11:46:43.414Z,75.03
2023-04-16T11:47:43.316Z,74.80
2023-04-16T11:48:43.259Z,75.73
2023-04-16T11:49:43.300Z,76.49
2023-04-16T11:50:43.879Z,74.69
2023-04-16T11:51:43.266Z,74.90
2023-04-16T11:52:43.356Z,76.78
2023-04-16T11:53:43.229Z,76.72
2023-04-16T11:54:43.328Z,71.37
2023-04-16T11:55:43.274Z,75.26
2023-04-16T11:56:43.280Z,75.32
2023-04-16T11:57:43.234Z,78.19
2023-04-16T11:58:43.461Z,76.59
2023-04-16T12:00:02.358Z,75.40
2023-04-16T12:00:44.204Z,74.77
2023-04-16T12:01:43.259Z,73.92
2023-04-16T12:02:43.426Z,77.28
2023-04-16T12:03:43.506Z,77.41
2023-04-16T12:04:43.242Z,75.24
2023-04-16T12:05:43.222Z,76.68
2023-04-16T12:06:43.949Z,75.15
2023-04-16T12:07:43.155Z,77.47
2023-04-16T12:08:43.178Z,73.42
2023-04-16T12:09:43.263Z,75.89
2023-04-16T12:10:43.142Z,76.55
2023-04-16T12:11:43.106Z,74.74
2023-04-16T12:12:43.114Z,76.47
2023-04-16T12:13:43.249Z,76.20
2023-04-16T12:14:43.121Z,73.44
2023-04-16T12:15:43.112Z,74.88
2023-04-16T12:16:43.184Z,75.23
2023-04-16T12:17:43.146Z,76.00
2023-04-16T12:18:43.059Z,75.87
2023-04-16T12:19:43.042Z,76.69
2023-04-16T12:20:43.066Z,72.49
2023-04-16T12:21:43.116Z,75.79
2023-04-16T12:22:43.067Z,75.05
2023-04-16T12:23:43.036Z,77.10
2023-04-16T12:24:43.216Z,74.47
2023-04-16T12:25:43.007Z,74.86
2023-04-16T12:26:43.065Z,74.75
2023-04-16T12:27:43.040Z,75.76
2023-04-16T12:28:43.010Z,77.39
2023-04-16T12:29:43.055Z,76.53
2023-04-16T12:30:43.050Z,78.44
2023-04-16T12:31:42.960Z,74.30
2023-04-16T12:32:43.065Z,73.76
2023-04-16T12:33:42.977Z,71.97
2023-04-16T12:34:48.511Z,75.50
2023-04-16T12:35:44.037Z,77.45
2023-04-16T12:36:42.949Z,73.85
2023-04-16T12:37:42.929Z,75.44
2023-04-16T12:38:43.014Z,73.07
2023-04-16T12:39:42.934Z,75.81
2023-04-16T12:40:42.939Z,75.07
2023-04-16T12:41:42.983Z,75.24
2023-04-16T12:42:42.913Z,73.19
2023-04-16T12:43:42.911Z,77.55
2023-04-16T12:44:42.915Z,75.27
2023-04-16T12:45:43.900Z,76.90
2023-04-16T12:46:42.914Z,75.47
2023-04-16T12:47:42.930Z,75.43
2023-04-16T12:48:42.941Z,74.44
2023-04-16T12:49:42.889Z,76.13
2023-04-16T12:50:42.937Z,73.24
2023-04-16T12:51:42.925Z,72.69
2023-04-16T12:52:42.905Z,77.59